Time;durP1;ratioP1;P1;durP2;ratioP2;P2;SDS_P1;SDS_P2;PMS_P1;PMS_P2;Temp;Humidity;BMP_temperature;BMP_pressure;BME280_temperature;BME280_humidity;BME280_pressure;Samples;Min_cycle;Max_cycle;Signal;HPM_P1;HPM_P2
2023/10/15 00:01:31;;;;;;;;;;;;;;;16.08;30.95;98355.78;5076416;28;19921;-64
2023/10/15 00:03:57;;;;;;;;;;;;;;;16.06;30.28;98366.88;5080507;28;19916;-64
2023/10/15 00:06:22;;;;;;;;;;;;;;;16.00;30.18;98376.13;5094716;28;19919;-64
2023/10/15 00:08:48;;;;;;;;;;;;;;;16.01;30.09;98375.84;5094708;28;19946;-65
2023/10/15 00:11:17;;;;;;;;;;;;;;;16.03;29.25;98381.00;5079084;28;20000;-64
2023/10/15 00:13:43;;;;;;;;;;;;;;;16.12;30.52;98386.59;5073497;28;19959;-65
2023/10/15 00:16:08;;;;;;;;;;;;;;;16.18;30.33;98394.41;5075054;28;19924;-65
2023/10/15 00:18:34;;;;;;;;;;;;;;;16.22;30.62;98398.19;5094566;28;19912;-67
2023/10/15 00:21:11;;;;;;;;;;;;;;;16.13;29.59;98402.56;5086063;28;19913;-64
2023/10/15 00:23:37;;;;;;;;;;;;;;;16.14;30.37;98411.50;5071544;28;20324;-65
2023/10/15 00:26:04;;;;;;;;;;;;;;;16.13;30.54;98418.03;5074155;28;19995;-65
2023/10/15 00:28:30;;;;;;;;;;;;;;;16.13;30.08;98421.53;5071444;28;19924;-64
2023/10/15 00:30:55;;;;;;;;;;;;;;;16.07;29.75;98422.66;5074222;28;19912;-65
2023/10/15 00:33:20;;;;;;;;;;;;;;;16.08;29.93;98434.28;5073206;28;20570;-65
2023/10/15 00:35:45;;;;;;;;;;;;;;;16.05;30.23;98441.88;5071949;28;19920;-65
2023/10/15 00:38:16;;;;;;;;;;;;;;;16.09;29.86;98449.47;5073903;28;19967;-64
2023/10/15 00:40:41;;;;;;;;;;;;;;;16.08;30.31;98455.94;5071955;28;19920;-65
2023/10/15 00:43:06;;;;;;;;;;;;;;;16.11;30.95;98456.22;5073651;28;20265;-65
2023/10/15 00:45:35;;;;;;;;;;;;;;;16.13;30.99;98455.94;5073179;28;19927;-65
2023/10/15 00:48:07;;;;;;;;;;;;;;;16.04;30.71;98464.63;5089890;28;19923;-64
2023/10/15 00:50:38;;;;;;;;;;;;;;;16.10;30.94;98467.31;5093946;28;19916;-66
2023/10/15 00:53:09;;;;;;;;;;;;;;;16.04;30.47;98478.16;5074798;28;19913;-66
2023/10/15 00:55:39;;;;;;;;;;;;;;;16.03;30.04;98481.19;5072309;28;19916;-66
2023/10/15 00:58:09;;;;;;;;;;;;;;;15.98;30.34;98490.13;5073517;28;19977;-66
2023/10/15 01:00:53;;;;;;;;;;;;;;;15.80;29.73;98496.16;5075802;28;19984;-66
2023/10/15 01:03:31;;;;;;;;;;;;;;;15.81;30.20;98504.00;5073930;28;19927;-66
2023/10/15 01:06:05;;;;;;;;;;;;;;;15.82;30.70;98511.03;5076787;28;20319;-66
2023/10/15 01:08:35;;;;;;;;;;;;;;;15.78;30.51;98512.66;5073432;28;19912;-64
2023/10/15 01:14:10;;;;;;;;;;;;;;;15.71;31.36;98522.13;5074239;28;19916;-66
2023/10/15 01:16:36;;;;;;;;;;;;;;;15.62;30.78;98522.69;5073626;28;20316;-68
2023/10/15 01:21:50;;;;;;;;;;;;;;;15.56;29.63;98539.22;5071065;28;19935;-68
2023/10/15 01:24:19;;;;;;;;;;;;;;;15.56;29.20;98540.00;5084555;28;20373;-68
2023/10/15 01:26:59;;;;;;;;;;;;;;;15.48;31.02;98551.41;5073926;28;19999;-68
2023/10/15 01:29:27;;;;;;;;;;;;;;;15.38;29.14;98568.47;5073465;28;19912;-68
2023/10/15 01:31:56;;;;;;;;;;;;;;;15.37;29.96;98558.72;5072844;28;19923;-68
2023/10/15 01:34:22;;;;;;;;;;;;;;;15.47;31.10;98560.59;5072847;28;19920;-68
2023/10/15 01:36:47;;;;;;;;;;;;;;;15.44;29.79;98572.78;5079358;28;19981;-68
2023/10/15 01:39:21;;;;;;;;;;;;;;;15.45;29.84;98577.13;5087499;28;20372;-68
2023/10/15 01:41:50;;;;;;;;;;;;;;;15.44;30.19;98593.63;5061730;28;20007;-67
2023/10/15 01:44:18;;;;;;;;;;;;;;;15.57;30.23;98605.78;5082058;28;19923;-67
2023/10/15 01:47:07;;;;;;;;;;;;;;;15.50;31.10;98614.16;5090628;28;19912;-67
2023/10/15 01:49:33;;;;;;;;;;;;;;;15.37;29.90;98612.81;5089962;28;19912;-67
2023/10/15 01:52:05;;;;;;;;;;;;;;;15.32;29.93;98636.34;5089638;28;19912;-67
2023/10/15 01:54:31;;;;;;;;;;;;;;;15.25;30.26;98637.44;5103936;28;20274;-67
2023/10/15 01:56:57;;;;;;;;;;;;;;;15.29;30.88;98641.22;5086512;28;19960;-68
2023/10/15 01:59:22;;;;;;;;;;;;;;;15.31;30.87;98646.34;5082961;28;19916;-68
2023/10/15 02:01:50;;;;;;;;;;;;;;;15.19;30.17;98659.31;5082587;28;19948;-68
2023/10/15 02:04:44;;;;;;;;;;;;;;;15.23;30.55;98654.97;5078884;28;19947;-68
2023/10/15 02:07:02;;;;;;;;;;;;;;;15.18;29.54;98661.22;5081890;28;20284;-67
2023/10/15 02:09:29;;;;;;;;;;;;;;;15.22;29.95;98669.59;5094612;28;19999;-68
2023/10/15 02:11:55;;;;;;;;;;;;;;;15.24;31.54;98668.25;5091439;28;20274;-68
2023/10/15 02:14:23;;;;;;;;;;;;;;;15.20;30.62;98671.78;5078641;28;19962;-69
2023/10/15 02:16:49;;;;;;;;;;;;;;;15.23;31.54;98679.31;5072824;28;19916;-68
2023/10/15 02:19:15;;;;;;;;;;;;;;;15.24;30.90;98680.97;5086294;28;19913;-68
2023/10/15 02:21:49;;;;;;;;;;;;;;;15.15;31.14;98698.78;5078183;28;20317;-68
2023/10/15 02:24:15;;;;;;;;;;;;;;;15.02;30.06;98705.53;5071140;28;19916;-68
2023/10/15 02:26:40;;;;;;;;;;;;;;;15.07;29.74;98708.25;5090490;28;19998;-68
2023/10/15 02:29:27;;;;;;;;;;;;;;;15.08;29.91;98712.56;5082232;28;19917;-68
2023/10/15 02:31:52;;;;;;;;;;;;;;;15.11;30.02;98722.84;5073410;28;19919;-68
2023/10/15 02:34:24;;;;;;;;;;;;;;;15.17;30.70;98720.97;5072990;28;20356;-68
2023/10/15 02:36:49;;;;;;;;;;;;;;;15.06;30.27;98717.41;5077432;28;19912;-68
2023/10/15 02:39:15;;;;;;;;;;;;;;;15.22;29.79;98729.91;5096747;28;19920;-68
2023/10/15 02:41:41;;;;;;;;;;;;;;;15.25;30.02;98726.69;5096457;28;20064;-68
2023/10/15 02:44:12;;;;;;;;;;;;;;;15.33;30.30;98735.34;5091415;28;19936;-68
2023/10/15 02:46:39;;;;;;;;;;;;;;;15.33;29.86;98740.75;5075578;28;19920;-68
2023/10/15 02:49:15;;;;;;;;;;;;;;;15.35;30.79;98744.00;5075091;28;19922;-68
2023/10/15 02:51:41;;;;;;;;;;;;;;;15.33;29.37;98754.28;5080421;28;20284;-68
2023/10/15 02:54:18;;;;;;;;;;;;;;;15.21;30.00;98760.75;5090208;28;19923;-68
2023/10/15 02:56:45;;;;;;;;;;;;;;;15.19;29.28;98771.03;5077074;28;20011;-68
2023/10/15 02:59:10;;;;;;;;;;;;;;;15.09;29.95;98770.97;5076038;28;19913;-68
2023/10/15 03:01:35;;;;;;;;;;;;;;;15.12;29.79;98780.44;5076041;28;19913;-68
2023/10/15 03:04:09;;;;;;;;;;;;;;;15.07;29.36;98778.53;5075798;28;19970;-68
2023/10/15 03:06:34;;;;;;;;;;;;;;;14.98;30.85;98782.81;5076297;28;19913;-68
2023/10/15 03:09:00;;;;;;;;;;;;;;;14.90;29.35;98784.16;5076262;28;19965;-68
2023/10/15 03:11:31;;;;;;;;;;;;;;;14.83;30.24;98784.38;5075669;28;20355;-68
2023/10/15 03:14:00;;;;;;;;;;;;;;;14.69;30.55;98785.91;5076421;28;19924;-68
2023/10/15 03:16:30;;;;;;;;;;;;;;;14.80;30.13;98794.91;5076119;28;19912;-68
2023/10/15 03:18:56;;;;;;;;;;;;;;;14.89;30.33;98801.44;5076019;28;20014;-68
2023/10/15 03:21:25;;;;;;;;;;;;;;;14.86;29.97;98808.19;5075972;28;20268;-68
2023/10/15 03:23:55;;;;;;;;;;;;;;;14.96;30.30;98820.94;5076003;28;20409;-67
2023/10/15 03:26:32;;;;;;;;;;;;;;;14.93;29.82;98823.34;5076072;28;20000;-67
2023/10/15 03:29:00;;;;;;;;;;;;;;;14.92;29.96;98825.22;5075919;28;20007;-67
2023/10/15 03:31:32;;;;;;;;;;;;;;;14.87;29.25;98847.63;5075422;28;19927;-67
2023/10/15 03:36:27;;;;;;;;;;;;;;;14.91;30.10;98839.81;5075663;28;20272;-67
2023/10/15 03:38:52;;;;;;;;;;;;;;;14.82;29.81;98852.19;5075730;28;19913;-67
2023/10/15 03:41:28;;;;;;;;;;;;;;;14.92;29.23;98851.47;5075603;28;20125;-68
2023/10/15 03:43:56;;;;;;;;;;;;;;;14.85;29.53;98867.91;5075749;28;19947;-68
2023/10/15 03:46:25;;;;;;;;;;;;;;;14.88;29.83;98873.59;5074345;28;19916;-67
2023/10/15 03:48:50;;;;;;;;;;;;;;;14.92;29.63;98867.69;5087433;28;19912;-67
2023/10/15 03:51:20;;;;;;;;;;;;;;;14.85;28.83;98881.41;5096065;28;20309;-67
2023/10/15 03:53:51;;;;;;;;;;;;;;;14.83;29.38;98888.97;5095080;28;19919;-67
2023/10/15 03:56:27;;;;;;;;;;;;;;;14.98;30.02;98894.47;5082081;28;19959;-67
2023/10/15 03:58:52;;;;;;;;;;;;;;;14.94;28.82;98903.38;5059206;28;20315;-67
2023/10/15 04:01:20;;;;;;;;;;;;;;;14.94;28.13;98914.19;5073828;28;20310;-68
2023/10/15 04:03:49;;;;;;;;;;;;;;;14.91;28.95;98907.38;5073494;28;19920;-67
2023/10/15 04:06:15;;;;;;;;;;;;;;;14.94;28.14;98914.19;5075022;28;19919;-67
2023/10/15 04:08:59;;;;;;;;;;;;;;;14.82;29.39;98922.47;5074714;28;19913;-67
2023/10/15 04:11:29;;;;;;;;;;;;;;;14.88;28.30;98937.66;5074441;28;20377;-67
2023/10/15 04:13:56;;;;;;;;;;;;;;;14.98;28.67;98942.31;5074999;28;19916;-67
2023/10/15 04:16:22;;;;;;;;;;;;;;;14.92;28.72;98948.78;5074963;28;19916;-67
2023/10/15 04:18:48;;;;;;;;;;;;;;;14.94;28.02;98960.13;5074881;28;19912;-67
2023/10/15 04:21:16;;;;;;;;;;;;;;;15.01;28.88;98956.13;5080420;28;19941;-67
2023/10/15 04:23:44;;;;;;;;;;;;;;;14.99;28.56;98955.56;5091426;28;19927;-67
2023/10/15 04:26:12;;;;;;;;;;;;;;;15.05;29.21;98968.03;5074886;28;19916;-67
2023/10/15 04:28:38;;;;;;;;;;;;;;;14.98;28.49;98972.06;5074599;28;19924;-67
2023/10/15 04:31:11;;;;;;;;;;;;;;;14.99;28.80;98979.91;5074473;28;19912;-67
2023/10/15 04:33:41;;;;;;;;;;;;;;;15.01;28.08;98982.34;5074472;28;19966;-67
2023/10/15 04:36:09;;;;;;;;;;;;;;;14.94;27.98;98992.56;5074436;28;19919;-67
2023/10/15 04:38:38;;;;;;;;;;;;;;;14.92;30.22;98992.03;5071438;28;19913;-67
2023/10/15 04:41:03;;;;;;;;;;;;;;;14.92;28.17;99000.13;5074371;28;19958;-67
2023/10/15 04:43:29;;;;;;;;;;;;;;;14.88;28.10;99008.75;5074371;28;19916;-66
2023/10/15 04:45:56;;;;;;;;;;;;;;;14.87;28.61;99011.69;5074464;28;19912;-67
2023/10/15 04:48:32;;;;;;;;;;;;;;;14.86;29.47;99021.72;5074600;28;19947;-67
2023/10/15 04:51:13;;;;;;;;;;;;;;;14.87;30.25;99022.50;5074700;28;19913;-67
2023/10/15 04:53:44;;;;;;;;;;;;;;;14.84;29.12;99023.00;5074223;28;19916;-67
2023/10/15 04:56:10;;;;;;;;;;;;;;;14.80;29.05;99028.16;5074282;28;19913;-67
2023/10/15 04:58:36;;;;;;;;;;;;;;;14.80;29.88;99021.91;5072241;28;19923;-67
2023/10/15 05:01:04;;;;;;;;;;;;;;;14.87;28.90;99038.72;5074023;28;19951;-67
2023/10/15 05:03:31;;;;;;;;;;;;;;;14.90;28.90;99049.03;5071096;28;20254;-67
2023/10/15 05:05:59;;;;;;;;;;;;;;;14.83;28.83;99043.84;5074029;28;19913;-67
2023/10/15 05:08:26;;;;;;;;;;;;;;;14.87;28.67;99049.53;5074087;28;19913;-67
2023/10/15 05:10:51;;;;;;;;;;;;;;;14.82;28.50;99063.00;5073494;28;20060;-67
2023/10/15 05:13:17;;;;;;;;;;;;;;;14.82;28.46;99069.25;5073977;28;19920;-67
2023/10/15 05:15:46;;;;;;;;;;;;;;;14.80;29.17;99070.56;5073890;28;19917;-67
2023/10/15 05:18:11;;;;;;;;;;;;;;;14.82;28.17;99081.91;5073695;28;19920;-67
2023/10/15 05:20:37;;;;;;;;;;;;;;;14.80;29.03;99075.97;5073496;28;19919;-67
2023/10/15 05:23:03;;;;;;;;;;;;;;;14.84;29.14;99088.72;5073995;28;20000;-67
2023/10/15 05:25:28;;;;;;;;;;;;;;;14.86;29.19;99083.88;5073721;28;19912;-67
2023/10/15 05:27:53;;;;;;;;;;;;;;;14.88;29.00;99097.13;5070091;28;19967;-67
2023/10/15 05:30:19;;;;;;;;;;;;;;;14.88;29.11;99099.84;5073979;28;19916;-67
2023/10/15 05:32:45;;;;;;;;;;;;;;;14.83;29.33;99095.19;5073856;28;19965;-67
2023/10/15 05:35:11;;;;;;;;;;;;;;;14.74;29.57;99104.00;5073590;28;20367;-67
2023/10/15 05:37:37;;;;;;;;;;;;;;;14.67;29.59;99115.00;5073442;28;19920;-67
2023/10/15 05:40:05;;;;;;;;;;;;;;;14.62;29.36;99120.38;5073525;28;20073;-67
2023/10/15 05:42:31;;;;;;;;;;;;;;;14.65;29.92;99123.41;5090369;28;19912;-67
2023/10/15 05:44:58;;;;;;;;;;;;;;;14.67;29.79;99125.81;5089970;28;19952;-67
2023/10/15 05:47:23;;;;;;;;;;;;;;;14.62;29.19;99131.19;5074280;28;20284;-67
2023/10/15 05:49:49;;;;;;;;;;;;;;;14.59;29.74;99135.19;5074097;28;20349;-67
2023/10/15 05:52:14;;;;;;;;;;;;;;;14.56;29.42;99146.50;5073461;28;19920;-67
2023/10/15 05:54:39;;;;;;;;;;;;;;;14.57;29.45;99153.53;5073202;28;19916;-67
2023/10/15 05:57:08;;;;;;;;;;;;;;;14.57;29.89;99158.94;5073262;28;19920;-67
2023/10/15 05:59:36;;;;;;;;;;;;;;;14.54;29.84;99164.81;5073127;28;19920;-66
2023/10/15 06:02:02;;;;;;;;;;;;;;;14.51;30.13;99171.56;5066079;28;19921;-66
2023/10/15 06:04:27;;;;;;;;;;;;;;;14.49;30.16;99186.38;5053339;28;20032;-66
2023/10/15 06:06:53;;;;;;;;;;;;;;;14.44;30.38;99184.41;5053002;28;19924;-67
2023/10/15 06:09:18;;;;;;;;;;;;;;;14.41;30.28;99193.03;5053173;28;19913;-67
2023/10/15 06:11:45;;;;;;;;;;;;;;;14.41;30.43;99193.03;5056639;28;19920;-67
2023/10/15 06:14:10;;;;;;;;;;;;;;;14.38;30.34;99206.22;5073201;28;19927;-67
2023/10/15 06:16:36;;;;;;;;;;;;;;;14.37;30.24;99207.28;5090670;28;19919;-67
2023/10/15 06:19:01;;;;;;;;;;;;;;;14.34;30.56;99216.72;5077046;28;19916;-67
2023/10/15 06:21:26;;;;;;;;;;;;;;;14.33;30.44;99218.56;5077148;28;19919;-67
2023/10/15 06:23:52;;;;;;;;;;;;;;;14.31;30.35;99220.72;5076737;28;19935;-67
2023/10/15 06:26:18;;;;;;;;;;;;;;;13.90;30.51;99173.41;5077045;28;19913;-67
2023/10/15 06:28:43;;;;;;;;;;;;;;;14.32;30.43;99237.75;5076832;28;19993;-67
2023/10/15 06:31:09;;;;;;;;;;;;;;;14.31;29.73;99236.91;5052124;28;19916;-67
2023/10/15 06:33:34;;;;;;;;;;;;;;;14.36;30.28;99240.75;5077023;28;19952;-67
2023/10/15 06:36:00;;;;;;;;;;;;;;;14.32;30.00;99256.66;5076996;28;20420;-67
2023/10/15 06:38:25;;;;;;;;;;;;;;;14.37;30.24;99264.00;5092752;28;19912;-67
2023/10/15 06:40:51;;;;;;;;;;;;;;;14.37;30.14;99256.72;5097048;28;19912;-67
2023/10/15 06:43:17;;;;;;;;;;;;;;;14.39;30.35;99268.09;5096854;28;20421;-67
2023/10/15 06:45:42;;;;;;;;;;;;;;;14.41;30.60;99267.84;5086351;28;19912;-67
2023/10/15 06:48:08;;;;;;;;;;;;;;;14.43;30.24;99274.66;5076826;28;19916;-67
2023/10/15 06:50:33;;;;;;;;;;;;;;;14.47;30.57;99277.66;5076987;28;20376;-67
2023/10/15 06:53:01;;;;;;;;;;;;;;;14.51;30.27;99285.00;5076559;28;20353;-67
2023/10/15 06:55:26;;;;;;;;;;;;;;;14.53;30.28;99298.28;5054663;28;19924;-67
2023/10/15 06:57:53;;;;;;;;;;;;;;;14.57;30.46;99301.31;5075415;28;19916;-68
2023/10/15 07:00:21;;;;;;;;;;;;;;;14.62;30.37;99307.63;5076401;28;19939;-68
2023/10/15 07:02:50;;;;;;;;;;;;;;;14.68;30.44;99309.31;5076049;28;19913;-67
2023/10/15 07:05:16;;;;;;;;;;;;;;;14.74;30.48;99314.81;5076274;28;20013;-68
2023/10/15 07:07:45;;;;;;;;;;;;;;;14.78;31.71;99314.03;5076410;28;19916;-67
2023/10/15 07:10:12;;;;;;;;;;;;;;;14.84;30.96;99321.19;5077202;28;19927;-67
2023/10/15 07:12:37;;;;;;;;;;;;;;;14.91;30.90;99323.69;5096447;28;20380;-67
2023/10/15 07:15:05;;;;;;;;;;;;;;;14.96;31.11;99325.66;5096456;28;19959;-68
2023/10/15 07:17:30;;;;;;;;;;;;;;;15.00;30.06;99332.19;5082443;28;20324;-67
2023/10/15 07:19:56;;;;;;;;;;;;;;;15.05;29.53;99338.47;5076074;28;19959;-68
2023/10/15 07:22:21;;;;;;;;;;;;;;;15.07;30.47;99336.34;5071007;28;19923;-68
2023/10/15 07:24:46;;;;;;;;;;;;;;;15.10;31.31;99337.72;5076079;28;19935;-68
2023/10/15 07:27:11;;;;;;;;;;;;;;;15.11;29.47;99336.66;5071033;28;20415;-68
2023/10/15 07:29:39;;;;;;;;;;;;;;;15.20;29.97;99339.75;5075990;28;19912;-68
2023/10/15 07:32:05;;;;;;;;;;;;;;;15.25;30.58;99342.50;5076000;28;20408;-68
2023/10/15 07:34:30;;;;;;;;;;;;;;;15.18;29.29;99353.50;5105694;28;19916;-67
2023/10/15 07:36:56;;;;;;;;;;;;;;;15.14;28.93;99360.50;5095924;28;19912;-67
2023/10/15 07:39:31;;;;;;;;;;;;;;;15.23;29.41;99366.25;5095984;28;19916;-67
2023/10/15 07:41:57;;;;;;;;;;;;;;;15.25;28.19;99370.38;5095840;28;19966;-67
2023/10/15 07:44:22;;;;;;;;;;;;;;;15.28;29.26;99372.59;5096175;28;19959;-67
2023/10/15 07:46:52;;;;;;;;;;;;;;;15.38;30.56;99379.16;5076431;28;20011;-68
2023/10/15 07:49:18;;;;;;;;;;;;;;;15.42;29.11;99383.03;5075889;28;19912;-68
2023/10/15 07:51:44;;;;;;;;;;;;;;;15.54;29.39;99383.69;5075718;28;19916;-68
2023/10/15 07:54:12;;;;;;;;;;;;;;;15.59;29.04;99388.34;5075090;28;19971;-68
2023/10/15 07:56:38;;;;;;;;;;;;;;;15.69;29.25;99391.16;5075181;28;20332;-68
2023/10/15 07:59:04;;;;;;;;;;;;;;;15.72;28.26;99392.56;5075605;28;20038;-68
2023/10/15 08:01:30;;;;;;;;;;;;;;;15.66;28.11;99402.50;5074102;28;20256;-68
2023/10/15 08:03:57;;;;;;;;;;;;;;;15.70;28.56;99392.00;5075137;28;19913;-68
2023/10/15 08:06:23;;;;;;;;;;;;;;;15.62;27.86;99406.78;5082165;28;19920;-68
2023/10/15 08:08:49;;;;;;;;;;;;;;;15.58;28.19;99408.34;5095359;28;19912;-68
2023/10/15 08:11:18;;;;;;;;;;;;;;;15.71;28.68;99412.56;5110903;28;19931;-68
2023/10/15 08:13:43;;;;;;;;;;;;;;;15.83;29.50;99413.28;5095417;28;20008;-68
2023/10/15 08:16:08;;;;;;;;;;;;;;;15.91;29.32;99414.72;5092780;28;21595;-68
2023/10/15 08:18:34;;;;;;;;;;;;;;;15.83;27.57;99424.13;5074955;28;20319;-68
2023/10/15 08:20:59;;;;;;;;;;;;;;;15.81;28.24;99427.06;5070124;28;19912;-67
2023/10/15 08:23:24;;;;;;;;;;;;;;;15.71;27.66;99445.84;5075063;28;19912;-67
2023/10/15 08:25:50;;;;;;;;;;;;;;;15.63;27.48;99446.31;5075100;28;19954;-68
2023/10/15 08:28:16;;;;;;;;;;;;;;;15.54;27.47;99454.03;5057063;28;20404;-68
2023/10/15 08:30:42;;;;;;;;;;;;;;;15.49;30.17;99443.19;5084369;28;19916;-67
2023/10/15 08:33:12;;;;;;;;;;;;;;;15.43;29.68;99457.69;5094788;28;19912;-67
2023/10/15 08:35:37;;;;;;;;;;;;;;;15.35;27.98;99466.25;5094763;28;19966;-67
2023/10/15 08:38:03;;;;;;;;;;;;;;;15.28;28.12;99469.13;5077051;28;19916;-67
2023/10/15 08:40:32;;;;;;;;;;;;;;;15.14;28.30;99470.56;5077268;28;19912;-67
2023/10/15 08:43:21;;;;;;;;;;;;;;;15.21;28.68;99466.63;5095054;28;19965;-68
2023/10/15 08:45:47;;;;;;;;;;;;;;;15.20;27.70;99474.97;5078125;28;20288;-67
2023/10/15 08:48:14;;;;;;;;;;;;;;;15.36;29.11;99476.00;5074635;28;19916;-67
2023/10/15 08:50:40;;;;;;;;;;;;;;;15.28;28.17;99483.50;5067664;28;19916;-66
2023/10/15 08:53:08;;;;;;;;;;;;;;;15.32;28.71;99489.19;5074360;28;19939;-66
2023/10/15 08:55:35;;;;;;;;;;;;;;;15.29;27.64;99495.94;5073575;28;19970;-67
2023/10/15 08:58:01;;;;;;;;;;;;;;;15.25;27.69;99499.41;5074176;28;19913;-66
2023/10/15 09:00:27;;;;;;;;;;;;;;;15.31;27.72;99505.69;5074189;28;19916;-67
2023/10/15 09:02:54;;;;;;;;;;;;;;;15.48;27.72;99506.47;5062688;28;19916;-66
2023/10/15 09:05:19;;;;;;;;;;;;;;;15.56;28.79;99519.56;5094474;28;19942;-67
2023/10/15 09:07:47;;;;;;;;;;;;;;;15.49;27.72;99502.72;5094536;28;19912;-67
2023/10/15 09:10:14;;;;;;;;;;;;;;;15.49;27.00;99514.34;5094226;28;19946;-67
2023/10/15 09:12:39;;;;;;;;;;;;;;;15.70;28.40;99519.22;5094213;28;20003;-67
2023/10/15 09:15:15;;;;;;;;;;;;;;;15.82;28.44;99519.94;5110047;28;20004;-67
2023/10/15 09:17:41;;;;;;;;;;;;;;;15.82;26.51;99528.06;5078134;28;19913;-67
2023/10/15 09:20:08;;;;;;;;;;;;;;;15.94;27.22;99528.75;5073794;28;19938;-67
2023/10/15 09:22:34;;;;;;;;;;;;;;;16.01;27.19;99523.97;5089404;28;20375;-67
2023/10/15 09:24:59;;;;;;;;;;;;;;;15.88;26.48;99524.34;5072749;28;19912;-67
2023/10/15 09:27:24;;;;;;;;;;;;;;;15.99;27.22;99530.69;5084955;28;19912;-67
2023/10/15 09:30:10;;;;;;;;;;;;;;;15.91;27.75;99521.13;5075734;28;20388;-67
2023/10/15 09:32:35;;;;;;;;;;;;;;;15.98;25.66;99540.72;5094326;28;20000;-67
2023/10/15 09:35:02;;;;;;;;;;;;;;;16.03;27.25;99523.72;5093648;28;19970;-67
2023/10/15 09:37:28;;;;;;;;;;;;;;;16.12;26.96;99534.91;5083031;28;20269;-67
2023/10/15 09:39:53;;;;;;;;;;;;;;;16.31;26.29;99538.94;5073723;28;19917;-67
2023/10/15 09:42:19;;;;;;;;;;;;;;;16.45;26.00;99542.06;5073550;28;19919;-67
2023/10/15 09:44:47;;;;;;;;;;;;;;;16.55;25.70;99549.50;5071924;28;19945;-67
2023/10/15 09:47:13;;;;;;;;;;;;;;;16.73;26.64;99557.25;5055530;28;19923;-67
2023/10/15 09:49:39;;;;;;;;;;;;;;;16.57;25.72;99552.75;5073798;28;19913;-67
2023/10/15 09:52:06;;;;;;;;;;;;;;;16.77;26.16;99573.81;5073409;28;20042;-66
2023/10/15 09:54:32;;;;;;;;;;;;;;;17.07;26.22;99573.31;5072709;28;20277;-66
2023/10/15 09:57:00;;;;;;;;;;;;;;;17.08;26.25;99569.50;5073268;28;19912;-66
2023/10/15 09:59:25;;;;;;;;;;;;;;;17.25;26.01;99584.84;5073214;28;20269;-66
2023/10/15 10:01:53;;;;;;;;;;;;;;;17.29;24.41;99591.38;5073509;28;19920;-65
2023/10/15 10:04:42;;;;;;;;;;;;;;;17.40;24.22;99574.09;5073339;28;19917;-66
2023/10/15 10:07:23;;;;;;;;;;;;;;;17.55;25.17;99579.66;5073131;28;19992;-66
2023/10/15 10:09:55;;;;;;;;;;;;;;;17.70;25.79;99578.94;5068484;28;19959;-66
2023/10/15 10:12:40;;;;;;;;;;;;;;;17.52;23.13;99596.44;5064334;28;19999;-66
2023/10/15 10:15:29;;;;;;;;;;;;;;;17.38;24.73;99595.25;5062331;28;19962;-66
2023/10/15 10:17:55;;;;;;;;;;;;;;;17.33;24.63;99604.19;5050184;28;19917;-66
2023/10/15 10:20:29;;;;;;;;;;;;;;;17.44;25.21;99615.94;5067550;28;19912;-67
2023/10/15 10:22:57;;;;;;;;;;;;;;;17.53;23.90;99618.97;5066126;28;20348;-65
2023/10/15 10:25:34;;;;;;;;;;;;;;;17.47;23.24;99626.28;5069267;28;20008;-65
2023/10/15 10:28:07;;;;;;;;;;;;;;;17.64;22.87;99609.81;5071049;28;19981;-66
2023/10/15 10:30:33;;;;;;;;;;;;;;;17.73;23.16;99615.59;5064305;28;19920;-66
2023/10/15 10:33:02;;;;;;;;;;;;;;;17.86;24.84;99612.44;5068084;28;19913;-66
2023/10/15 10:35:27;;;;;;;;;;;;;;;18.07;23.29;99616.09;5065180;28;19949;-66
2023/10/15 10:38:03;;;;;;;;;;;;;;;18.02;24.77;99610.63;5071272;28;19920;-68
2023/10/15 10:40:48;;;;;;;;;;;;;;;17.82;23.31;99621.34;5068572;28;19959;-68
2023/10/15 10:43:16;;;;;;;;;;;;;;;17.98;23.95;99604.09;5068027;28;20372;-66
2023/10/15 10:45:51;;;;;;;;;;;;;;;18.08;23.00;99598.69;5068110;28;19917;-66
2023/10/15 10:48:24;;;;;;;;;;;;;;;17.98;23.65;99607.63;5066518;28;19912;-68
2023/10/15 10:51:09;;;;;;;;;;;;;;;17.99;25.01;99609.25;5090878;28;19912;-68
2023/10/15 10:53:35;;;;;;;;;;;;;;;17.99;23.98;99601.09;5084624;28;19947;-65
2023/10/15 10:56:07;;;;;;;;;;;;;;;18.11;24.00;99611.78;5069030;28;19959;-64
2023/10/15 10:58:35;;;;;;;;;;;;;;;18.25;23.04;99628.41;5070777;28;19939;-64
2023/10/15 11:01:00;;;;;;;;;;;;;;;18.24;24.66;99612.34;5067928;28;19920;-66
2023/10/15 11:03:26;;;;;;;;;;;;;;;18.16;23.84;99606.38;5074521;28;19912;-66
2023/10/15 11:05:52;;;;;;;;;;;;;;;18.31;24.19;99610.22;5076996;28;20004;-66
2023/10/15 11:08:18;;;;;;;;;;;;;;;18.67;24.12;99613.88;5094945;28;19912;-66
2023/10/15 11:10:45;;;;;;;;;;;;;;;18.76;22.70;99614.97;5088643;28;20272;-66
2023/10/15 11:13:10;;;;;;;;;;;;;;;18.71;24.23;99608.72;5073244;28;19944;-67
2023/10/15 11:15:36;;;;;;;;;;;;;;;18.67;24.67;99622.03;5054913;28;19978;-66
2023/10/15 11:18:04;;;;;;;;;;;;;;;18.63;22.34;99620.09;5030671;28;20307;-66
2023/10/15 11:20:33;;;;;;;;;;;;;;;18.63;24.57;99620.09;5080534;28;19913;-67
2023/10/15 11:23:01;;;;;;;;;;;;;;;18.75;24.30;99626.94;5070859;28;19912;-68
2023/10/15 11:25:26;;;;;;;;;;;;;;;18.76;24.42;99630.50;5032246;28;19913;-68
2023/10/15 11:27:54;;;;;;;;;;;;;;;18.95;23.31;99639.81;5061048;28;20003;-67
2023/10/15 11:30:21;;;;;;;;;;;;;;;18.85;22.73;99639.78;5038475;28;19928;-68
2023/10/15 11:32:53;;;;;;;;;;;;;;;18.81;24.27;99635.16;5071774;28;19920;-68
2023/10/15 11:35:19;;;;;;;;;;;;;;;18.87;25.25;99632.19;5065888;28;19916;-66
2023/10/15 11:37:50;;;;;;;;;;;;;;;18.92;25.17;99647.69;5081802;28;20011;-65
2023/10/15 11:40:17;;;;;;;;;;;;;;;18.92;23.26;99637.59;5073072;28;19937;-68
2023/10/15 11:42:47;;;;;;;;;;;;;;;18.85;23.25;99637.06;5072667;28;19955;-65
2023/10/15 11:45:18;;;;;;;;;;;;;;;18.69;22.18;99638.09;5088079;28;19923;-65
2023/10/15 11:47:44;;;;;;;;;;;;;;;18.66;22.43;99639.41;5074905;28;20369;-65
2023/10/15 11:50:12;;;;;;;;;;;;;;;18.82;23.49;99644.97;5077393;28;19969;-66
2023/10/15 11:52:44;;;;;;;;;;;;;;;18.92;23.60;99644.97;5075558;28;19917;-66
2023/10/15 11:55:16;;;;;;;;;;;;;;;19.02;23.35;99650.44;5053553;28;20323;-65
2023/10/15 11:57:42;;;;;;;;;;;;;;;19.00;23.48;99651.78;5081096;28;19912;-65
2023/10/15 12:00:09;;;;;;;;;;;;;;;19.01;21.99;99656.16;5084146;28;19923;-65
2023/10/15 12:02:34;;;;;;;;;;;;;;;19.00;23.69;99658.06;5069101;28;19957;-66
2023/10/15 12:05:01;;;;;;;;;;;;;;;19.02;22.01;99657.75;5072998;28;19995;-66
2023/10/15 12:07:28;;;;;;;;;;;;;;;19.23;24.23;99664.06;5070331;28;20385;-66
2023/10/15 12:09:53;;;;;;;;;;;;;;;19.48;24.60;99658.66;5072438;28;19928;-68
2023/10/15 12:12:18;;;;;;;;;;;;;;;19.63;21.46;99666.00;5072758;28;19916;-67
2023/10/15 12:14:44;;;;;;;;;;;;;;;19.90;22.16;99656.72;5072214;28;20373;-67
2023/10/15 12:17:12;;;;;;;;;;;;;;;19.60;21.37;99665.72;5082932;28;19916;-67
2023/10/15 12:19:38;;;;;;;;;;;;;;;19.94;23.24;99663.25;5087078;28;19938;-67
2023/10/15 12:22:03;;;;;;;;;;;;;;;20.08;21.67;99663.50;5074887;28;20554;-68
2023/10/15 12:24:28;;;;;;;;;;;;;;;20.02;20.12;99675.50;5075218;28;19952;-68
2023/10/15 12:26:54;;;;;;;;;;;;;;;19.79;21.35;99661.34;5070889;28;19912;-67
2023/10/15 12:29:28;;;;;;;;;;;;;;;20.00;21.28;99667.63;5072573;28;19916;-65
2023/10/15 12:31:57;;;;;;;;;;;;;;;20.30;22.01;99668.63;5075979;28;19920;-66
2023/10/15 12:34:24;;;;;;;;;;;;;;;20.47;23.21;99673.75;5062476;28;20284;-65
2023/10/15 12:36:49;;;;;;;;;;;;;;;20.63;21.90;99685.41;5073334;28;19928;-67
2023/10/15 12:39:15;;;;;;;;;;;;;;;20.87;23.17;99689.09;5070800;28;19940;-66
2023/10/15 12:41:40;;;;;;;;;;;;;;;20.92;20.70;99692.94;5055936;28;19917;-66
2023/10/15 12:44:11;;;;;;;;;;;;;;;20.81;20.20;99694.88;5054155;28;19963;-64
2023/10/15 12:46:37;;;;;;;;;;;;;;;20.94;21.86;99694.28;5045809;28;19927;-64
2023/10/15 12:49:07;;;;;;;;;;;;;;;20.97;22.92;99688.25;5068495;28;19916;-64
2023/10/15 12:51:34;;;;;;;;;;;;;;;20.98;20.55;99692.59;5067905;28;20301;-64
2023/10/15 12:53:59;;;;;;;;;;;;;;;20.94;19.84;99693.47;5084077;28;20280;-68
2023/10/15 12:56:25;;;;;;;;;;;;;;;20.63;20.79;99699.88;5076367;28;19920;-68
2023/10/15 12:58:50;;;;;;;;;;;;;;;20.75;22.03;99702.28;5054753;28;19919;-68
2023/10/15 13:01:20;;;;;;;;;;;;;;;20.83;20.94;99709.88;5085264;28;19912;-68